sensor_id;sensor_type;location;lat;lon;timestamp;temperature;humidity
31765;DHT22;18338;53.240;8.798;2022-09-14T00:01:20;12.10;99.90
31765;DHT22;18338;53.240;8.798;2022-09-14T00:04:00;12.10;99.90
31765;DHT22;18338;53.240;8.798;2022-09-14T00:06:27;12.00;99.90
31765;DHT22;18338;53.240;8.798;2022-09-14T00:08:55;12.00;99.90
31765;DHT22;18338;53.240;8.798;2022-09-14T00:11:25;12.00;99.90
31765;DHT22;18338;53.240;8.798;2022-09-14T00:13:53;12.00;99.90
31765;DHT22;18338;53.240;8.798;2022-09-14T00:16:26;12.00;99.90
31765;DHT22;18338;53.240;8.798;2022-09-14T00:18:56;12.00;99.90
31765;DHT22;18338;53.240;8.798;2022-09-14T00:21:26;12.00;99.90
31765;DHT22;18338;53.240;8.798;2022-09-14T00:23:53;12.00;99.90
31765;DHT22;18338;53.240;8.798;2022-09-14T00:26:21;12.00;99.90
31765;DHT22;18338;53.240;8.798;2022-09-14T00:28:58;12.00;99.90
31765;DHT22;18338;53.240;8.798;2022-09-14T00:31:25;12.00;99.90
31765;DHT22;18338;53.240;8.798;2022-09-14T00:33:53;12.00;99.90
31765;DHT22;18338;53.240;8.798;2022-09-14T00:36:22;12.00;99.90
31765;DHT22;18338;53.240;8.798;2022-09-14T00:38:49;12.00;99.90
31765;DHT22;18338;53.240;8.798;2022-09-14T00:41:22;12.00;99.90
31765;DHT22;18338;53.240;8.798;2022-09-14T00:46:47;12.00;99.90
31765;DHT22;18338;53.240;8.798;2022-09-14T00:49:26;12.10;99.90
31765;DHT22;18338;53.240;8.798;2022-09-14T00:54:42;12.00;99.90
31765;DHT22;18338;53.240;8.798;2022-09-14T00:57:10;12.10;99.90
31765;DHT22;18338;53.240;8.798;2022-09-14T00:59:38;12.10;99.90
31765;DHT22;18338;53.240;8.798;2022-09-14T01:02:08;12.10;99.90
31765;DHT22;18338;53.240;8.798;2022-09-14T01:04:35;12.10;99.90
31765;DHT22;18338;53.240;8.798;2022-09-14T01:07:17;12.20;99.90
31765;DHT22;18338;53.240;8.798;2022-09-14T01:18:59;12.70;99.90
31765;DHT22;18338;53.240;8.798;2022-09-14T01:21:34;12.80;99.90
31765;DHT22;18338;53.240;8.798;2022-09-14T01:24:27;12.90;99.90
31765;DHT22;18338;53.240;8.798;2022-09-14T01:27:18;13.00;99.90
31765;DHT22;18338;53.240;8.798;2022-09-14T01:33:25;13.10;99.90
31765;DHT22;18338;53.240;8.798;2022-09-14T01:35:37;13.10;99.90
31765;DHT22;18338;53.240;8.798;2022-09-14T01:38:29;13.20;99.90
31765;DHT22;18338;53.240;8.798;2022-09-14T01:40:58;13.20;99.90
31765;DHT22;18338;53.240;8.798;2022-09-14T01:43:31;13.30;99.90
31765;DHT22;18338;53.240;8.798;2022-09-14T01:46:18;13.30;99.90
31765;DHT22;18338;53.240;8.798;2022-09-14T01:49:03;13.30;99.90
31765;DHT22;18338;53.240;8.798;2022-09-14T01:51:41;13.20;99.90
31765;DHT22;18338;53.240;8.798;2022-09-14T01:56:52;12.90;99.90
31765;DHT22;18338;53.240;8.798;2022-09-14T01:59:23;12.90;99.90
31765;DHT22;18338;53.240;8.798;2022-09-14T02:02:06;12.70;99.90
31765;DHT22;18338;53.240;8.798;2022-09-14T02:07:34;12.60;99.90
31765;DHT22;18338;53.240;8.798;2022-09-14T02:10:04;12.60;99.90
31765;DHT22;18338;53.240;8.798;2022-09-14T02:12:33;12.70;99.90
31765;DHT22;18338;53.240;8.798;2022-09-14T02:14:59;12.80;99.90
31765;DHT22;18338;53.240;8.798;2022-09-14T02:17:27;12.80;99.90
31765;DHT22;18338;53.240;8.798;2022-09-14T02:19:57;12.90;99.90
31765;DHT22;18338;53.240;8.798;2022-09-14T02:22:26;13.00;99.90
31765;DHT22;18338;53.240;8.798;2022-09-14T02:24:53;13.10;99.90
31765;DHT22;18338;53.240;8.798;2022-09-14T02:27:20;13.20;99.90
31765;DHT22;18338;53.240;8.798;2022-09-14T02:29:47;13.20;99.90
31765;DHT22;18338;53.240;8.798;2022-09-14T02:37:51;13.30;99.90
31765;DHT22;18338;53.240;8.798;2022-09-14T02:40:40;13.30;99.90
31765;DHT22;18338;53.240;8.798;2022-09-14T02:44:05;13.30;99.90
31765;DHT22;18338;53.240;8.798;2022-09-14T02:49:30;13.40;99.90
31765;DHT22;18338;53.240;8.798;2022-09-14T02:52:10;13.30;99.90
31765;DHT22;18338;53.240;8.798;2022-09-14T02:54:53;13.30;99.90
31765;DHT22;18338;53.240;8.798;2022-09-14T02:57:23;13.20;99.90
31765;DHT22;18338;53.240;8.798;2022-09-14T02:59:52;13.10;99.90
31765;DHT22;18338;53.240;8.798;2022-09-14T03:02:19;13.10;99.90
31765;DHT22;18338;53.240;8.798;2022-09-14T03:04:46;13.10;99.90
31765;DHT22;18338;53.240;8.798;2022-09-14T03:07:12;13.00;99.90
31765;DHT22;18338;53.240;8.798;2022-09-14T03:09:39;13.00;99.90
31765;DHT22;18338;53.240;8.798;2022-09-14T03:12:06;12.90;99.90
31765;DHT22;18338;53.240;8.798;2022-09-14T03:14:32;12.70;99.90
31765;DHT22;18338;53.240;8.798;2022-09-14T03:16:59;12.60;99.90
31765;DHT22;18338;53.240;8.798;2022-09-14T03:19:25;12.50;99.90
31765;DHT22;18338;53.240;8.798;2022-09-14T03:21:52;12.50;99.90
31765;DHT22;18338;53.240;8.798;2022-09-14T03:24:19;12.40;99.90
31765;DHT22;18338;53.240;8.798;2022-09-14T03:26:45;12.40;99.90
31765;DHT22;18338;53.240;8.798;2022-09-14T03:29:12;12.50;99.90
31765;DHT22;18338;53.240;8.798;2022-09-14T03:31:39;12.50;99.90
31765;DHT22;18338;53.240;8.798;2022-09-14T03:34:05;12.60;99.90
31765;DHT22;18338;53.240;8.798;2022-09-14T03:36:32;12.60;99.90
31765;DHT22;18338;53.240;8.798;2022-09-14T03:38:59;12.50;99.90
31765;DHT22;18338;53.240;8.798;2022-09-14T03:41:27;12.40;99.90
31765;DHT22;18338;53.240;8.798;2022-09-14T03:43:54;12.40;99.90
31765;DHT22;18338;53.240;8.798;2022-09-14T03:46:22;12.40;99.90
31765;DHT22;18338;53.240;8.798;2022-09-14T03:48:49;12.40;99.90
31765;DHT22;18338;53.240;8.798;2022-09-14T03:51:17;12.40;99.90
31765;DHT22;18338;53.240;8.798;2022-09-14T03:53:44;12.40;99.90
31765;DHT22;18338;53.240;8.798;2022-09-14T03:56:16;12.40;99.90
31765;DHT22;18338;53.240;8.798;2022-09-14T03:58:44;12.50;99.90
31765;DHT22;18338;53.240;8.798;2022-09-14T04:01:13;12.50;99.90
31765;DHT22;18338;53.240;8.798;2022-09-14T04:03:41;12.50;99.90
31765;DHT22;18338;53.240;8.798;2022-09-14T04:06:08;12.60;99.90
31765;DHT22;18338;53.240;8.798;2022-09-14T04:08:37;12.60;99.90
31765;DHT22;18338;53.240;8.798;2022-09-14T04:11:14;12.60;99.90
31765;DHT22;18338;53.240;8.798;2022-09-14T04:13:41;12.60;99.90
31765;DHT22;18338;53.240;8.798;2022-09-14T04:16:08;12.60;99.90
31765;DHT22;18338;53.240;8.798;2022-09-14T04:18:35;12.70;99.90
31765;DHT22;18338;53.240;8.798;2022-09-14T04:21:06;12.80;99.90
31765;DHT22;18338;53.240;8.798;2022-09-14T04:23:34;12.80;99.90
31765;DHT22;18338;53.240;8.798;2022-09-14T04:26:18;12.90;99.90
31765;DHT22;18338;53.240;8.798;2022-09-14T04:28:44;13.00;99.90
31765;DHT22;18338;53.240;8.798;2022-09-14T04:31:12;13.10;99.90
31765;DHT22;18338;53.240;8.798;2022-09-14T04:33:40;13.10;99.90
31765;DHT22;18338;53.240;8.798;2022-09-14T04:36:10;13.10;99.90
31765;DHT22;18338;53.240;8.798;2022-09-14T04:38:38;13.10;99.90
31765;DHT22;18338;53.240;8.798;2022-09-14T04:41:10;13.20;99.90
31765;DHT22;18338;53.240;8.798;2022-09-14T04:43:37;13.20;99.90
31765;DHT22;18338;53.240;8.798;2022-09-14T04:46:16;13.20;99.90
31765;DHT22;18338;53.240;8.798;2022-09-14T04:48:43;13.20;99.90
31765;DHT22;18338;53.240;8.798;2022-09-14T04:51:16;13.20;99.90
31765;DHT22;18338;53.240;8.798;2022-09-14T04:53:45;13.20;99.90
31765;DHT22;18338;53.240;8.798;2022-09-14T04:56:13;13.20;99.90
31765;DHT22;18338;53.240;8.798;2022-09-14T04:58:45;13.20;99.90
31765;DHT22;18338;53.240;8.798;2022-09-14T05:01:19;13.30;99.90
31765;DHT22;18338;53.240;8.798;2022-09-14T05:03:46;13.30;99.90
31765;DHT22;18338;53.240;8.798;2022-09-14T05:06:15;13.20;99.90
31765;DHT22;18338;53.240;8.798;2022-09-14T05:08:42;13.20;99.90
31765;DHT22;18338;53.240;8.798;2022-09-14T05:11:13;13.30;99.90
31765;DHT22;18338;53.240;8.798;2022-09-14T05:13:40;13.30;99.90
31765;DHT22;18338;53.240;8.798;2022-09-14T05:16:16;13.30;99.90
31765;DHT22;18338;53.240;8.798;2022-09-14T05:18:44;13.40;99.90
31765;DHT22;18338;53.240;8.798;2022-09-14T05:21:14;13.40;99.90
31765;DHT22;18338;53.240;8.798;2022-09-14T05:23:41;13.40;99.90
31765;DHT22;18338;53.240;8.798;2022-09-14T05:26:08;13.40;99.90
31765;DHT22;18338;53.240;8.798;2022-09-14T05:28:35;13.40;99.90
31765;DHT22;18338;53.240;8.798;2022-09-14T05:31:07;13.40;99.90
31765;DHT22;18338;53.240;8.798;2022-09-14T05:33:35;13.40;99.90
31765;DHT22;18338;53.240;8.798;2022-09-14T05:36:04;13.50;99.90
31765;DHT22;18338;53.240;8.798;2022-09-14T05:38:36;13.50;99.90
31765;DHT22;18338;53.240;8.798;2022-09-14T05:41:04;13.60;99.90
31765;DHT22;18338;53.240;8.798;2022-09-14T05:43:31;13.60;99.90
31765;DHT22;18338;53.240;8.798;2022-09-14T05:46:06;13.70;99.90
31765;DHT22;18338;53.240;8.798;2022-09-14T05:48:34;13.90;99.90
31765;DHT22;18338;53.240;8.798;2022-09-14T05:51:07;14.00;99.90
31765;DHT22;18338;53.240;8.798;2022-09-14T05:53:35;14.10;99.90
31765;DHT22;18338;53.240;8.798;2022-09-14T05:56:07;14.20;99.90
31765;DHT22;18338;53.240;8.798;2022-09-14T05:58:35;14.20;99.90
31765;DHT22;18338;53.240;8.798;2022-09-14T06:03:33;14.40;99.90
31765;DHT22;18338;53.240;8.798;2022-09-14T06:06:01;14.50;99.90
31765;DHT22;18338;53.240;8.798;2022-09-14T06:08:27;14.70;99.90
31765;DHT22;18338;53.240;8.798;2022-09-14T06:10:54;14.80;99.90
31765;DHT22;18338;53.240;8.798;2022-09-14T06:13:21;14.90;99.90
31765;DHT22;18338;53.240;8.798;2022-09-14T06:15:48;15.00;99.90
31765;DHT22;18338;53.240;8.798;2022-09-14T06:18:15;15.10;99.90
31765;DHT22;18338;53.240;8.798;2022-09-14T06:20:51;15.20;99.90
31765;DHT22;18338;53.240;8.798;2022-09-14T06:23:18;15.20;99.90
31765;DHT22;18338;53.240;8.798;2022-09-14T06:25:44;15.20;99.90
31765;DHT22;18338;53.240;8.798;2022-09-14T06:28:11;15.20;99.90
31765;DHT22;18338;53.240;8.798;2022-09-14T06:30:41;15.30;99.90
31765;DHT22;18338;53.240;8.798;2022-09-14T06:33:08;15.40;99.90
31765;DHT22;18338;53.240;8.798;2022-09-14T06:35:34;15.40;99.90
31765;DHT22;18338;53.240;8.798;2022-09-14T06:38:01;15.40;99.90
31765;DHT22;18338;53.240;8.798;2022-09-14T06:40:27;15.40;99.90
31765;DHT22;18338;53.240;8.798;2022-09-14T06:42:54;15.40;99.90
31765;DHT22;18338;53.240;8.798;2022-09-14T06:45:23;15.40;99.90
31765;DHT22;18338;53.240;8.798;2022-09-14T06:47:50;15.40;99.90
31765;DHT22;18338;53.240;8.798;2022-09-14T06:50:17;15.70;99.90
31765;DHT22;18338;53.240;8.798;2022-09-14T06:52:43;15.80;99.90
31765;DHT22;18338;53.240;8.798;2022-09-14T06:55:10;16.00;99.90
31765;DHT22;18338;53.240;8.798;2022-09-14T06:57:36;16.10;99.90
31765;DHT22;18338;53.240;8.798;2022-09-14T07:00:08;16.30;99.90
31765;DHT22;18338;53.240;8.798;2022-09-14T07:02:35;16.40;99.90
31765;DHT22;18338;53.240;8.798;2022-09-14T07:05:02;16.50;99.90
31765;DHT22;18338;53.240;8.798;2022-09-14T07:07:29;16.50;99.90
31765;DHT22;18338;53.240;8.798;2022-09-14T07:09:56;16.70;99.90
31765;DHT22;18338;53.240;8.798;2022-09-14T07:12:23;16.80;99.90
31765;DHT22;18338;53.240;8.798;2022-09-14T07:14:50;16.90;99.90
31765;DHT22;18338;53.240;8.798;2022-09-14T07:17:17;17.10;99.90
31765;DHT22;18338;53.240;8.798;2022-09-14T07:19:45;17.30;99.90
31765;DHT22;18338;53.240;8.798;2022-09-14T07:22:11;17.40;99.90
31765;DHT22;18338;53.240;8.798;2022-09-14T07:24:38;17.40;99.90
31765;DHT22;18338;53.240;8.798;2022-09-14T07:27:05;17.20;99.90
31765;DHT22;18338;53.240;8.798;2022-09-14T07:29:31;17.00;99.90
31765;DHT22;18338;53.240;8.798;2022-09-14T07:31:58;16.90;99.90
31765;DHT22;18338;53.240;8.798;2022-09-14T07:34:25;16.90;99.90
31765;DHT22;18338;53.240;8.798;2022-09-14T07:36:52;17.00;99.90
31765;DHT22;18338;53.240;8.798;2022-09-14T07:39:19;17.10;99.90
31765;DHT22;18338;53.240;8.798;2022-09-14T07:41:47;17.10;99.90
31765;DHT22;18338;53.240;8.798;2022-09-14T07:44:16;17.40;99.90
31765;DHT22;18338;53.240;8.798;2022-09-14T07:46:44;17.70;99.90
31765;DHT22;18338;53.240;8.798;2022-09-14T07:49:11;18.30;99.90
31765;DHT22;18338;53.240;8.798;2022-09-14T07:51:38;18.70;99.90
31765;DHT22;18338;53.240;8.798;2022-09-14T07:54:07;19.00;99.90
31765;DHT22;18338;53.240;8.798;2022-09-14T07:56:36;19.20;99.90
31765;DHT22;18338;53.240;8.798;2022-09-14T07:59:03;19.50;99.90
31765;DHT22;18338;53.240;8.798;2022-09-14T08:01:50;19.90;99.90
31765;DHT22;18338;53.240;8.798;2022-09-14T08:04:17;20.30;99.90
31765;DHT22;18338;53.240;8.798;2022-09-14T08:06:44;20.70;99.90
31765;DHT22;18338;53.240;8.798;2022-09-14T08:09:12;20.90;99.90
31765;DHT22;18338;53.240;8.798;2022-09-14T08:11:39;20.70;99.90
31765;DHT22;18338;53.240;8.798;2022-09-14T08:14:09;20.70;99.90
31765;DHT22;18338;53.240;8.798;2022-09-14T08:16:37;20.60;99.90
31765;DHT22;18338;53.240;8.798;2022-09-14T08:19:07;20.40;99.90
31765;DHT22;18338;53.240;8.798;2022-09-14T08:21:36;20.40;99.90
31765;DHT22;18338;53.240;8.798;2022-09-14T08:24:03;20.20;99.90
31765;DHT22;18338;53.240;8.798;2022-09-14T08:26:30;20.30;99.90
31765;DHT22;18338;53.240;8.798;2022-09-14T08:28:57;20.40;99.90
31765;DHT22;18338;53.240;8.798;2022-09-14T08:31:27;20.40;99.90
31765;DHT22;18338;53.240;8.798;2022-09-14T08:33:59;20.30;99.90
31765;DHT22;18338;53.240;8.798;2022-09-14T08:36:28;20.30;99.90
31765;DHT22;18338;53.240;8.798;2022-09-14T08:38:56;20.30;99.90
31765;DHT22;18338;53.240;8.798;2022-09-14T08:41:34;20.60;99.90
31765;DHT22;18338;53.240;8.798;2022-09-14T08:44:43;21.70;99.90
31765;DHT22;18338;53.240;8.798;2022-09-14T08:47:15;21.80;99.90
31765;DHT22;18338;53.240;8.798;2022-09-14T08:52:36;23.10;99.90
31765;DHT22;18338;53.240;8.798;2022-09-14T08:55:44;23.70;99.90
31765;DHT22;18338;53.240;8.798;2022-09-14T09:01:43;24.90;99.90
31765;DHT22;18338;53.240;8.798;2022-09-14T09:04:55;24.20;99.90
31765;DHT22;18338;53.240;8.798;2022-09-14T09:07:34;23.90;99.90
31765;DHT22;18338;53.240;8.798;2022-09-14T09:10:07;23.90;99.90
31765;DHT22;18338;53.240;8.798;2022-09-14T09:12:47;23.60;99.90
31765;DHT22;18338;53.240;8.798;2022-09-14T09:15:20;23.20;99.90
31765;DHT22;18338;53.240;8.798;2022-09-14T09:18:14;22.80;99.90
31765;DHT22;18338;53.240;8.798;2022-09-14T09:20:49;22.60;99.90
31765;DHT22;18338;53.240;8.798;2022-09-14T09:23:20;22.60;99.90
31765;DHT22;18338;53.240;8.798;2022-09-14T09:26:06;23.00;99.90
31765;DHT22;18338;53.240;8.798;2022-09-14T09:28:49;25.00;99.90
31765;DHT22;18338;53.240;8.798;2022-09-14T09:31:18;26.40;96.90
31765;DHT22;18338;53.240;8.798;2022-09-14T09:33:48;26.60;96.50
31765;DHT22;18338;53.240;8.798;2022-09-14T09:36:16;27.10;95.50
31765;DHT22;18338;53.240;8.798;2022-09-14T09:38:43;27.10;95.80
31765;DHT22;18338;53.240;8.798;2022-09-14T09:44:12;28.20;94.60
31765;DHT22;18338;53.240;8.798;2022-09-14T09:46:49;27.90;91.40
31765;DHT22;18338;53.240;8.798;2022-09-14T09:49:31;26.30;92.30
31765;DHT22;18338;53.240;8.798;2022-09-14T09:52:13;25.20;93.90
31765;DHT22;18338;53.240;8.798;2022-09-14T09:54:42;24.80;96.90
31765;DHT22;18338;53.240;8.798;2022-09-14T09:57:29;24.70;95.70
31765;DHT22;18338;53.240;8.798;2022-09-14T10:00:25;23.80;95.30
31765;DHT22;18338;53.240;8.798;2022-09-14T10:02:53;23.50;97.00
31765;DHT22;18338;53.240;8.798;2022-09-14T10:05:26;23.30;97.10
31765;DHT22;18338;53.240;8.798;2022-09-14T10:07:58;23.80;96.40
31765;DHT22;18338;53.240;8.798;2022-09-14T10:13:04;25.90;94.30
31765;DHT22;18338;53.240;8.798;2022-09-14T10:15:33;27.70;92.10
31765;DHT22;18338;53.240;8.798;2022-09-14T10:20:38;27.00;90.20
31765;DHT22;18338;53.240;8.798;2022-09-14T10:23:21;26.20;92.00
31765;DHT22;18338;53.240;8.798;2022-09-14T10:25:53;24.90;93.20
31765;DHT22;18338;53.240;8.798;2022-09-14T10:28:32;24.50;94.10
31765;DHT22;18338;53.240;8.798;2022-09-14T10:33:38;23.80;96.40
31765;DHT22;18338;53.240;8.798;2022-09-14T10:50:26;26.00;94.10
31765;DHT22;18338;53.240;8.798;2022-09-14T10:53:09;25.70;94.00
31765;DHT22;18338;53.240;8.798;2022-09-14T10:58:57;24.40;96.80
31765;DHT22;18338;53.240;8.798;2022-09-14T11:04:16;25.40;94.60
31765;DHT22;18338;53.240;8.798;2022-09-14T11:07:14;25.40;95.00
31765;DHT22;18338;53.240;8.798;2022-09-14T11:10:09;25.60;94.60
31765;DHT22;18338;53.240;8.798;2022-09-14T11:13:24;26.80;92.10
31765;DHT22;18338;53.240;8.798;2022-09-14T11:16:07;27.50;93.00
31765;DHT22;18338;53.240;8.798;2022-09-14T11:21:32;28.20;91.30
31765;DHT22;18338;53.240;8.798;2022-09-14T11:24:13;28.80;87.90
31765;DHT22;18338;53.240;8.798;2022-09-14T11:27:14;30.00;86.60
31765;DHT22;18338;53.240;8.798;2022-09-14T11:29:58;29.70;85.50
31765;DHT22;18338;53.240;8.798;2022-09-14T11:35:12;28.40;86.20
31765;DHT22;18338;53.240;8.798;2022-09-14T11:37:43;26.40;90.30
31765;DHT22;18338;53.240;8.798;2022-09-14T11:40:34;25.30;92.00
31765;DHT22;18338;53.240;8.798;2022-09-14T11:43:09;25.00;93.60
31765;DHT22;18338;53.240;8.798;2022-09-14T11:45:49;25.20;93.00
31765;DHT22;18338;53.240;8.798;2022-09-14T11:48:31;25.30;93.40
31765;DHT22;18338;53.240;8.798;2022-09-14T11:54:34;25.00;93.70
31765;DHT22;18338;53.240;8.798;2022-09-14T11:57:16;24.40;94.50
31765;DHT22;18338;53.240;8.798;2022-09-14T11:59:55;24.50;95.60
31765;DHT22;18338;53.240;8.798;2022-09-14T12:11:24;25.40;94.10
31765;DHT22;18338;53.240;8.798;2022-09-14T12:14:20;24.80;93.90
31765;DHT22;18338;53.240;8.798;2022-09-14T12:17:14;24.10;94.60
31765;DHT22;18338;53.240;8.798;2022-09-14T12:20:35;23.40;95.70
31765;DHT22;18338;53.240;8.798;2022-09-14T12:23:20;22.50;98.40
31765;DHT22;18338;53.240;8.798;2022-09-14T12:26:25;22.00;99.90
31765;DHT22;18338;53.240;8.798;2022-09-14T12:28:53;21.40;99.90
31765;DHT22;18338;53.240;8.798;2022-09-14T12:31:31;21.00;99.90
31765;DHT22;18338;53.240;8.798;2022-09-14T12:49:55;22.30;99.90
31765;DHT22;18338;53.240;8.798;2022-09-14T12:52:50;22.20;99.90
31765;DHT22;18338;53.240;8.798;2022-09-14T12:55:41;22.10;99.90
31765;DHT22;18338;53.240;8.798;2022-09-14T13:03:47;22.10;99.90
31765;DHT22;18338;53.240;8.798;2022-09-14T13:06:16;22.10;99.90
31765;DHT22;18338;53.240;8.798;2022-09-14T13:08:46;21.90;99.90
31765;DHT22;18338;53.240;8.798;2022-09-14T13:11:30;21.70;99.90
31765;DHT22;18338;53.240;8.798;2022-09-14T13:13:59;22.20;99.90
31765;DHT22;18338;53.240;8.798;2022-09-14T13:16:34;23.90;99.90
31765;DHT22;18338;53.240;8.798;2022-09-14T13:19:04;25.20;98.00
31765;DHT22;18338;53.240;8.798;2022-09-14T13:21:45;25.50;96.30
31765;DHT22;18338;53.240;8.798;2022-09-14T13:27:01;25.90;94.70
31765;DHT22;18338;53.240;8.798;2022-09-14T13:29:28;25.30;94.70
31765;DHT22;18338;53.240;8.798;2022-09-14T13:31:57;24.30;96.80
31765;DHT22;18338;53.240;8.798;2022-09-14T13:34:32;23.80;97.40
31765;DHT22;18338;53.240;8.798;2022-09-14T13:36:59;23.60;98.30
31765;DHT22;18338;53.240;8.798;2022-09-14T13:39:35;23.50;98.20
31765;DHT22;18338;53.240;8.798;2022-09-14T13:42:03;23.00;98.40
31765;DHT22;18338;53.240;8.798;2022-09-14T13:44:37;22.70;99.60
31765;DHT22;18338;53.240;8.798;2022-09-14T13:47:07;22.60;99.90
31765;DHT22;18338;53.240;8.798;2022-09-14T13:49:36;22.60;99.90
31765;DHT22;18338;53.240;8.798;2022-09-14T13:58:20;22.10;99.90
31765;DHT22;18338;53.240;8.798;2022-09-14T14:00:59;22.20;99.90
31765;DHT22;18338;53.240;8.798;2022-09-14T14:03:38;22.20;99.90
31765;DHT22;18338;53.240;8.798;2022-09-14T14:06:33;22.20;99.90
31765;DHT22;18338;53.240;8.798;2022-09-14T14:09:06;22.30;99.90
31765;DHT22;18338;53.240;8.798;2022-09-14T14:11:38;22.20;99.90
31765;DHT22;18338;53.240;8.798;2022-09-14T14:19:35;21.90;99.90
31765;DHT22;18338;53.240;8.798;2022-09-14T14:22:25;22.00;99.90
31765;DHT22;18338;53.240;8.798;2022-09-14T14:24:52;21.70;99.90
31765;DHT22;18338;53.240;8.798;2022-09-14T14:27:44;21.90;99.90
31765;DHT22;18338;53.240;8.798;2022-09-14T14:30:14;22.20;99.90
31765;DHT22;18338;53.240;8.798;2022-09-14T14:32:41;22.60;99.90
31765;DHT22;18338;53.240;8.798;2022-09-14T14:35:23;23.00;99.90
31765;DHT22;18338;53.240;8.798;2022-09-14T14:41:35;23.40;99.60
31765;DHT22;18338;53.240;8.798;2022-09-14T14:44:02;23.90;98.20
31765;DHT22;18338;53.240;8.798;2022-09-14T14:46:29;24.20;96.60
31765;DHT22;18338;53.240;8.798;2022-09-14T14:48:56;23.90;96.40
31765;DHT22;18338;53.240;8.798;2022-09-14T14:51:22;23.60;98.10
31765;DHT22;18338;53.240;8.798;2022-09-14T14:53:49;23.40;99.20
31765;DHT22;18338;53.240;8.798;2022-09-14T14:56:16;23.40;98.40
31765;DHT22;18338;53.240;8.798;2022-09-14T14:58:44;23.20;98.40
31765;DHT22;18338;53.240;8.798;2022-09-14T15:01:11;23.00;98.80
31765;DHT22;18338;53.240;8.798;2022-09-14T15:03:38;22.30;99.60
31765;DHT22;18338;53.240;8.798;2022-09-14T15:06:13;22.00;99.90
31765;DHT22;18338;53.240;8.798;2022-09-14T15:08:41;22.00;99.90
31765;DHT22;18338;53.240;8.798;2022-09-14T15:11:22;22.20;99.90
31765;DHT22;18338;53.240;8.798;2022-09-14T15:14:01;23.00;99.10
31765;DHT22;18338;53.240;8.798;2022-09-14T15:16:43;23.20;99.70
31765;DHT22;18338;53.240;8.798;2022-09-14T15:19:10;23.10;99.00
31765;DHT22;18338;53.240;8.798;2022-09-14T15:21:37;23.30;98.60
31765;DHT22;18338;53.240;8.798;2022-09-14T15:24:05;23.40;97.40
31765;DHT22;18338;53.240;8.798;2022-09-14T15:26:32;23.40;97.40
31765;DHT22;18338;53.240;8.798;2022-09-14T15:28:59;24.00;96.80
31765;DHT22;18338;53.240;8.798;2022-09-14T15:31:26;24.00;96.20
31765;DHT22;18338;53.240;8.798;2022-09-14T15:33:53;23.70;96.80
31765;DHT22;18338;53.240;8.798;2022-09-14T15:36:46;23.60;97.10
31765;DHT22;18338;53.240;8.798;2022-09-14T15:39:22;23.00;98.00
31765;DHT22;18338;53.240;8.798;2022-09-14T15:41:50;22.40;99.30
31765;DHT22;18338;53.240;8.798;2022-09-14T15:44:17;21.80;99.90
31765;DHT22;18338;53.240;8.798;2022-09-14T15:46:47;21.50;99.90
31765;DHT22;18338;53.240;8.798;2022-09-14T15:49:24;21.20;99.90
31765;DHT22;18338;53.240;8.798;2022-09-14T15:51:55;20.90;99.90
31765;DHT22;18338;53.240;8.798;2022-09-14T15:54:37;20.80;99.90
31765;DHT22;18338;53.240;8.798;2022-09-14T15:57:11;20.30;99.90
31765;DHT22;18338;53.240;8.798;2022-09-14T15:59:46;20.20;99.90
31765;DHT22;18338;53.240;8.798;2022-09-14T16:02:12;20.20;99.90
31765;DHT22;18338;53.240;8.798;2022-09-14T16:04:39;20.10;99.90
31765;DHT22;18338;53.240;8.798;2022-09-14T16:07:15;20.00;99.90
31765;DHT22;18338;53.240;8.798;2022-09-14T16:09:43;20.00;99.90
31765;DHT22;18338;53.240;8.798;2022-09-14T16:12:11;20.10;99.90
31765;DHT22;18338;53.240;8.798;2022-09-14T16:14:38;20.10;99.90
31765;DHT22;18338;53.240;8.798;2022-09-14T16:17:05;20.20;99.90
31765;DHT22;18338;53.240;8.798;2022-09-14T16:19:32;20.30;99.90
31765;DHT22;18338;53.240;8.798;2022-09-14T16:22:01;20.50;99.90
31765;DHT22;18338;53.240;8.798;2022-09-14T16:24:31;20.60;99.90
31765;DHT22;18338;53.240;8.798;2022-09-14T16:26:58;20.50;99.90
31765;DHT22;18338;53.240;8.798;2022-09-14T16:29:25;20.50;99.90
31765;DHT22;18338;53.240;8.798;2022-09-14T16:31:52;20.60;99.90
31765;DHT22;18338;53.240;8.798;2022-09-14T16:34:22;20.60;99.90
31765;DHT22;18338;53.240;8.798;2022-09-14T16:36:51;20.50;99.90
31765;DHT22;18338;53.240;8.798;2022-09-14T16:39:20;20.20;99.90
31765;DHT22;18338;53.240;8.798;2022-09-14T16:41:49;19.90;99.90
31765;DHT22;18338;53.240;8.798;2022-09-14T16:44:18;19.70;99.90
31765;DHT22;18338;53.240;8.798;2022-09-14T16:46:45;19.40;99.90
31765;DHT22;18338;53.240;8.798;2022-09-14T16:49:14;19.10;99.90
31765;DHT22;18338;53.240;8.798;2022-09-14T16:51:41;18.90;99.90
31765;DHT22;18338;53.240;8.798;2022-09-14T16:54:17;18.80;99.90
31765;DHT22;18338;53.240;8.798;2022-09-14T16:56:45;18.60;99.90
31765;DHT22;18338;53.240;8.798;2022-09-14T16:59:12;18.40;99.90
31765;DHT22;18338;53.240;8.798;2022-09-14T17:01:41;18.10;99.90
31765;DHT22;18338;53.240;8.798;2022-09-14T17:04:14;17.90;99.90
31765;DHT22;18338;53.240;8.798;2022-09-14T17:06:42;17.70;99.90
31765;DHT22;18338;53.240;8.798;2022-09-14T17:09:14;17.40;99.90
31765;DHT22;18338;53.240;8.798;2022-09-14T17:11:42;17.20;99.90
31765;DHT22;18338;53.240;8.798;2022-09-14T17:14:28;17.00;99.90
31765;DHT22;18338;53.240;8.798;2022-09-14T17:16:55;16.80;99.90
31765;DHT22;18338;53.240;8.798;2022-09-14T17:19:22;16.60;99.90
31765;DHT22;18338;53.240;8.798;2022-09-14T17:21:50;16.50;99.90
31765;DHT22;18338;53.240;8.798;2022-09-14T17:24:18;16.40;99.90
31765;DHT22;18338;53.240;8.798;2022-09-14T17:26:45;16.20;99.90
31765;DHT22;18338;53.240;8.798;2022-09-14T17:29:12;16.10;99.90
31765;DHT22;18338;53.240;8.798;2022-09-14T17:31:40;16.00;99.90
31765;DHT22;18338;53.240;8.798;2022-09-14T17:34:09;15.90;99.90
31765;DHT22;18338;53.240;8.798;2022-09-14T17:36:52;15.80;99.90
31765;DHT22;18338;53.240;8.798;2022-09-14T17:39:19;15.70;99.90
31765;DHT22;18338;53.240;8.798;2022-09-14T17:41:45;15.60;99.90
31765;DHT22;18338;53.240;8.798;2022-09-14T17:44:13;15.40;99.90
31765;DHT22;18338;53.240;8.798;2022-09-14T17:46:42;15.30;99.90
31765;DHT22;18338;53.240;8.798;2022-09-14T17:49:23;15.20;99.90
31765;DHT22;18338;53.240;8.798;2022-09-14T17:51:50;15.10;99.90
31765;DHT22;18338;53.240;8.798;2022-09-14T17:54:18;15.00;99.90
31765;DHT22;18338;53.240;8.798;2022-09-14T17:56:45;15.00;99.90
31765;DHT22;18338;53.240;8.798;2022-09-14T17:59:14;14.90;99.90
31765;DHT22;18338;53.240;8.798;2022-09-14T18:01:41;14.80;99.90
31765;DHT22;18338;53.240;8.798;2022-09-14T18:04:10;14.80;99.90
31765;DHT22;18338;53.240;8.798;2022-09-14T18:06:40;14.70;99.90
31765;DHT22;18338;53.240;8.798;2022-09-14T18:09:13;14.70;99.90
31765;DHT22;18338;53.240;8.798;2022-09-14T18:11:40;14.70;99.90